Time;durP1;ratioP1;P1;durP2;ratioP2;P2;SDS_P1;SDS_P2;PMS_P1;PMS_P2;Temp;Humidity;BMP_temperature;BMP_pressure;BME280_temperature;BME280_humidity;BME280_pressure;Samples;Min_cycle;Max_cycle;Signal;HPM_P1;HPM_P2
2022/06/14 00:00:53;;;;;;;13.00;9.08;;;;;;;;;;1823436;78;21210;-76
2022/06/14 00:02:13;;;;;;;15.18;9.30;;;;;;;;;;1820674;78;21228;-77
2022/06/14 00:04:45;;;;;;;18.27;9.73;;;;;;;;;;1819778;78;21211;-79
2022/06/14 00:07:17;;;;;;;19.40;10.80;;;;;;;;;;1819709;78;21125;-78
2022/06/14 00:09:48;;;;;;;16.42;10.00;;;;;;;;;;1828901;78;21214;-75
2022/06/14 00:12:21;;;;;;;15.72;9.38;;;;;;;;;;1801439;78;21413;-78
2022/06/14 00:14:53;;;;;;;16.12;10.20;;;;;;;;;;1841494;78;21087;-74
2022/06/14 00:17:24;;;;;;;17.92;11.53;;;;;;;;;;1827944;78;21183;-78
2022/06/14 00:19:57;;;;;;;17.20;11.03;;;;;;;;;;1757822;80;21088;-74
2022/06/14 00:22:30;;;;;;;19.05;11.30;;;;;;;;;;1802817;78;21075;-82
2022/06/14 00:25:04;;;;;;;18.35;11.03;;;;;;;;;;1832085;78;21242;-81
2022/06/14 00:27:35;;;;;;;21.82;12.23;;;;;;;;;;1824659;78;21188;-82
2022/06/14 00:30:09;;;;;;;21.65;11.93;;;;;;;;;;1814334;78;21123;-81
2022/06/14 00:32:40;;;;;;;16.77;11.40;;;;;;;;;;1775100;81;21228;-80
2022/06/14 00:35:13;;;;;;;15.75;11.30;;;;;;;;;;1787239;78;21165;-81
2022/06/14 00:37:44;;;;;;;27.98;11.78;;;;;;;;;;1828011;77;21165;-81
2022/06/14 00:40:18;;;;;;;19.23;11.57;;;;;;;;;;1797384;78;21162;-80
2022/06/14 00:42:50;;;;;;;20.72;12.25;;;;;;;;;;1783789;79;21141;-81
2022/06/14 00:45:22;;;;;;;18.45;11.53;;;;;;;;;;1786220;78;21135;-79
2022/06/14 00:47:55;;;;;;;20.97;12.18;;;;;;;;;;1823359;78;21790;-81
2022/06/14 00:50:27;;;;;;;18.05;11.53;;;;;;;;;;1808544;78;21165;-80
2022/06/14 00:53:00;;;;;;;14.60;11.25;;;;;;;;;;1826304;77;21244;-81
2022/06/14 00:55:33;;;;;;;21.48;11.48;;;;;;;;;;1844571;77;21146;-80
2022/06/14 00:58:04;;;;;;;19.20;11.15;;;;;;;;;;1796524;78;21228;-80
2022/06/14 01:00:36;;;;;;;18.42;11.38;;;;;;;;;;1820714;78;21284;-82
2022/06/14 01:03:10;;;;;;;19.23;10.68;;;;;;;;;;1781171;79;21142;-81
2022/06/14 01:08:35;;;;;;;22.40;11.10;;;;;;;;;;1792906;79;21212;-82
2022/06/14 01:11:08;;;;;;;15.23;10.95;;;;;;;;;;1796430;78;21126;-83
2022/06/14 01:13:41;;;;;;;18.48;10.93;;;;;;;;;;1838478;77;21217;-82
2022/06/14 01:16:13;;;;;;;18.40;10.25;;;;;;;;;;1817364;78;21090;-82
2022/06/14 01:18:45;;;;;;;17.05;10.43;;;;;;;;;;1823985;78;21086;-81
2022/06/14 01:21:18;;;;;;;16.57;10.72;;;;;;;;;;1799575;78;21127;-81
2022/06/14 01:23:51;;;;;;;20.35;11.50;;;;;;;;;;1779042;79;21157;-81
2022/06/14 01:26:27;;;;;;;15.83;10.43;;;;;;;;;;1773518;78;21106;-81
2022/06/14 01:29:00;;;;;;;16.87;10.98;;;;;;;;;;1832607;77;21122;-81
2022/06/14 01:31:34;;;;;;;16.25;9.93;;;;;;;;;;1795459;78;21146;-82
2022/06/14 01:34:08;;;;;;;18.42;9.93;;;;;;;;;;1766359;80;21145;-82
2022/06/14 01:36:41;;;;;;;21.25;11.15;;;;;;;;;;1793057;77;21217;-82
2022/06/14 01:39:14;;;;;;;19.05;10.40;;;;;;;;;;1793622;79;21154;-81
2022/06/14 01:41:49;;;;;;;18.90;10.30;;;;;;;;;;1796758;78;21185;-82
2022/06/14 01:44:21;;;;;;;16.32;10.65;;;;;;;;;;1793037;78;21162;-82
2022/06/14 01:46:56;;;;;;;21.37;10.70;;;;;;;;;;1791101;78;21103;-81
2022/06/14 01:52:02;;;;;;;20.52;10.75;;;;;;;;;;1760941;80;21253;-81
2022/06/14 01:54:35;;;;;;;18.37;10.58;;;;;;;;;;1761487;80;21653;-82
2022/06/14 01:57:08;;;;;;;19.70;11.03;;;;;;;;;;1775515;79;21220;-80
2022/06/14 01:59:44;;;;;;;16.90;10.37;;;;;;;;;;1765065;79;21239;-81
2022/06/14 02:02:16;;;;;;;21.30;9.80;;;;;;;;;;1765622;80;21170;-81
2022/06/14 02:04:48;;;;;;;12.78;9.23;;;;;;;;;;1794955;78;21278;-82
2022/06/14 02:07:21;;;;;;;16.50;9.50;;;;;;;;;;1794419;78;21453;-82
2022/06/14 02:09:53;;;;;;;16.23;9.35;;;;;;;;;;1764815;80;21173;-82
2022/06/14 02:12:26;;;;;;;15.15;8.90;;;;;;;;;;1754904;81;21167;-81
2022/06/14 02:14:59;;;;;;;13.53;8.28;;;;;;;;;;1759574;80;21271;-81
2022/06/14 02:17:33;;;;;;;13.35;8.33;;;;;;;;;;1793041;79;21209;-81
2022/06/14 02:20:05;;;;;;;17.55;8.65;;;;;;;;;;1808663;78;21135;-78
2022/06/14 02:22:39;;;;;;;19.40;9.15;;;;;;;;;;1783326;79;21119;-82
2022/06/14 02:25:12;;;;;;;14.18;9.63;;;;;;;;;;1787708;79;21115;-81
2022/06/14 02:27:45;;;;;;;19.17;9.20;;;;;;;;;;1767210;79;21181;-80
2022/06/14 02:30:17;;;;;;;14.45;9.00;;;;;;;;;;1774476;80;21193;-82
2022/06/14 02:32:50;;;;;;;18.32;9.08;;;;;;;;;;1778443;80;21192;-80
2022/06/14 02:35:22;;;;;;;14.98;9.30;;;;;;;;;;1784443;78;21095;-80
2022/06/14 02:37:55;;;;;;;15.13;9.15;;;;;;;;;;1808516;78;21208;-80
2022/06/14 02:40:30;;;;;;;15.72;9.58;;;;;;;;;;1806824;78;21172;-81
2022/06/14 02:43:04;;;;;;;19.27;9.18;;;;;;;;;;1817381;78;21224;-84
2022/06/14 02:45:37;;;;;;;15.68;10.08;;;;;;;;;;1784764;78;21564;-83
2022/06/14 02:48:10;;;;;;;16.45;9.30;;;;;;;;;;1790222;79;21266;-81
2022/06/14 02:50:41;;;;;;;16.45;9.73;;;;;;;;;;1783418;78;21142;-81
2022/06/14 02:53:14;;;;;;;14.15;9.23;;;;;;;;;;1830114;77;21162;-81
2022/06/14 02:55:49;;;;;;;16.87;8.90;;;;;;;;;;1819435;78;21119;-82
2022/06/14 02:58:24;;;;;;;17.87;9.43;;;;;;;;;;1781189;78;21292;-82
2022/06/14 03:01:01;;;;;;;18.37;9.05;;;;;;;;;;1834382;77;21114;-81
2022/06/14 03:03:38;;;;;;;13.18;8.35;;;;;;;;;;1810722;77;21190;-81
2022/06/14 03:06:13;;;;;;;15.65;8.28;;;;;;;;;;1806409;78;21169;-79
2022/06/14 03:08:48;;;;;;;13.83;8.83;;;;;;;;;;1816222;78;21079;-80
2022/06/14 03:11:23;;;;;;;11.88;8.13;;;;;;;;;;1823724;78;21150;-82
2022/06/14 03:13:57;;;;;;;11.70;8.08;;;;;;;;;;1833296;77;21158;-81
2022/06/14 03:16:32;;;;;;;19.98;8.55;;;;;;;;;;1825743;77;21182;-81
2022/06/14 03:19:07;;;;;;;15.78;8.75;;;;;;;;;;1827263;77;21160;-79
2022/06/14 03:21:46;;;;;;;17.55;8.75;;;;;;;;;;1821932;77;21249;-81
2022/06/14 03:24:20;;;;;;;18.67;9.35;;;;;;;;;;1801037;78;21159;-80
2022/06/14 03:26:57;;;;;;;16.77;8.55;;;;;;;;;;1806915;79;21137;-82
2022/06/14 03:29:31;;;;;;;13.73;8.20;;;;;;;;;;1809248;79;21149;-80
2022/06/14 03:32:05;;;;;;;15.48;8.50;;;;;;;;;;1807347;79;21158;-82
2022/06/14 03:34:47;;;;;;;14.90;8.15;;;;;;;;;;1810131;79;21188;-82
2022/06/14 03:37:20;;;;;;;12.98;8.00;;;;;;;;;;1807447;79;21133;-81
2022/06/14 03:39:56;;;;;;;12.75;8.23;;;;;;;;;;1818143;78;21115;-80
2022/06/14 03:42:32;;;;;;;11.95;7.97;;;;;;;;;;1819047;78;21164;-80
2022/06/14 03:45:09;;;;;;;16.35;8.10;;;;;;;;;;1828057;78;21304;-80
2022/06/14 03:47:42;;;;;;;9.90;6.75;;;;;;;;;;1823101;78;21232;-81
2022/06/14 03:50:16;;;;;;;13.88;7.85;;;;;;;;;;1822120;78;21156;-80
2022/06/14 03:52:51;;;;;;;15.30;7.85;;;;;;;;;;1823096;79;21639;-82
2022/06/14 03:55:30;;;;;;;17.65;7.97;;;;;;;;;;1828611;77;21170;-81
2022/06/14 03:58:12;;;;;;;15.53;7.85;;;;;;;;;;1819296;79;21221;-79
2022/06/14 04:00:46;;;;;;;12.55;7.50;;;;;;;;;;1817018;78;21138;-80
2022/06/14 04:03:22;;;;;;;14.47;7.00;;;;;;;;;;1814893;77;21220;-82
2022/06/14 04:05:55;;;;;;;17.42;7.33;;;;;;;;;;1815920;78;21152;-79
2022/06/14 04:08:32;;;;;;;14.28;7.40;;;;;;;;;;1784158;80;21169;-80
2022/06/14 04:11:11;;;;;;;13.10;7.00;;;;;;;;;;1801016;78;21155;-80
2022/06/14 04:13:45;;;;;;;13.40;6.92;;;;;;;;;;1784654;79;21309;-79
2022/06/14 04:16:19;;;;;;;10.70;6.92;;;;;;;;;;1801337;79;21199;-80
2022/06/14 04:18:57;;;;;;;12.15;6.58;;;;;;;;;;1801125;77;21149;-82
2022/06/14 04:21:35;;;;;;;11.80;6.75;;;;;;;;;;1828727;78;21130;-81
2022/06/14 04:24:09;;;;;;;11.33;6.42;;;;;;;;;;1819240;78;21166;-81
2022/06/14 04:26:46;;;;;;;14.75;7.70;;;;;;;;;;1818703;78;21244;-81
2022/06/14 04:29:28;;;;;;;10.30;6.47;;;;;;;;;;1816223;78;21168;-80
2022/06/14 04:32:07;;;;;;;9.05;5.87;;;;;;;;;;1816420;79;21131;-82
2022/06/14 04:34:41;;;;;;;10.00;6.35;;;;;;;;;;1819061;78;21239;-82
2022/06/14 04:37:15;;;;;;;13.20;6.37;;;;;;;;;;1814841;79;21162;-80
2022/06/14 04:39:49;;;;;;;12.10;6.42;;;;;;;;;;1818055;77;21154;-80
2022/06/14 04:42:24;;;;;;;11.18;6.45;;;;;;;;;;1826331;78;21219;-81
2022/06/14 04:44:58;;;;;;;11.45;5.97;;;;;;;;;;1818678;78;21187;-81
2022/06/14 04:47:32;;;;;;;9.70;6.35;;;;;;;;;;1808363;78;21182;-81
2022/06/14 04:50:07;;;;;;;13.90;6.50;;;;;;;;;;1817703;79;21185;-81
2022/06/14 04:52:41;;;;;;;12.20;6.33;;;;;;;;;;1817448;79;21181;-81
2022/06/14 04:55:16;;;;;;;11.88;6.33;;;;;;;;;;1822194;78;21210;-81
2022/06/14 04:57:50;;;;;;;12.40;5.80;;;;;;;;;;1816945;78;21557;-80
2022/06/14 05:00:34;;;;;;;13.45;5.95;;;;;;;;;;1815943;78;21182;-82
2022/06/14 05:03:02;;;;;;;12.47;6.72;;;;;;;;;;1789942;78;21214;-81
2022/06/14 05:05:41;;;;;;;14.80;6.53;;;;;;;;;;1814273;78;21252;-82
2022/06/14 05:08:11;;;;;;;12.45;6.20;;;;;;;;;;1815302;78;21207;-82
2022/06/14 05:10:48;;;;;;;11.05;5.87;;;;;;;;;;1820593;77;21172;-81
2022/06/14 05:13:31;;;;;;;11.22;6.25;;;;;;;;;;1828450;77;21142;-80
2022/06/14 05:16:03;;;;;;;8.78;4.90;;;;;;;;;;1829083;77;21159;-82
2022/06/14 05:18:37;;;;;;;13.18;5.72;;;;;;;;;;1823961;77;21142;-80
2022/06/14 05:21:11;;;;;;;11.08;5.08;;;;;;;;;;1829089;77;21198;-80
2022/06/14 05:23:46;;;;;;;9.53;4.90;;;;;;;;;;1832141;77;21146;-80
2022/06/14 05:26:18;;;;;;;10.53;4.87;;;;;;;;;;1838476;77;21096;-80
2022/06/14 05:28:51;;;;;;;10.20;5.50;;;;;;;;;;1843890;77;21423;-82
2022/06/14 05:31:43;;;;;;;9.23;5.22;;;;;;;;;;1833398;77;21237;-82
2022/06/14 05:34:16;;;;;;;13.05;5.33;;;;;;;;;;1814868;77;21127;-82
2022/06/14 05:36:58;;;;;;;9.33;5.75;;;;;;;;;;1808465;78;21178;-81
2022/06/14 05:39:33;;;;;;;14.47;5.95;;;;;;;;;;1818438;78;21134;-81
2022/06/14 05:42:17;;;;;;;10.85;5.62;;;;;;;;;;1819440;77;21594;-80
2022/06/14 05:44:51;;;;;;;11.57;5.72;;;;;;;;;;1803013;77;21722;-82
2022/06/14 05:47:26;;;;;;;12.78;4.95;;;;;;;;;;1784804;80;21477;-82
2022/06/14 05:50:02;;;;;;;11.97;6.10;;;;;;;;;;1764224;80;21177;-82
2022/06/14 05:52:36;;;;;;;9.83;5.28;;;;;;;;;;1804740;78;21179;-82
2022/06/14 05:55:11;;;;;;;14.13;5.53;;;;;;;;;;1791939;79;21209;-80
2022/06/14 05:57:45;;;;;;;10.45;4.95;;;;;;;;;;1824011;78;21973;-80
2022/06/14 06:00:21;;;;;;;11.65;5.55;;;;;;;;;;1811418;78;21202;-80
2022/06/14 06:02:58;;;;;;;9.90;5.70;;;;;;;;;;1797171;78;21252;-81
2022/06/14 06:05:33;;;;;;;8.35;5.05;;;;;;;;;;1795411;80;21133;-80
2022/06/14 06:08:07;;;;;;;10.32;5.15;;;;;;;;;;1777341;78;21086;-80
2022/06/14 06:10:42;;;;;;;10.50;4.70;;;;;;;;;;1757282;80;21150;-80
2022/06/14 06:13:16;;;;;;;7.47;4.08;;;;;;;;;;1801591;78;21192;-80
2022/06/14 06:15:50;;;;;;;6.08;4.08;;;;;;;;;;1782542;79;21244;-81
2022/06/14 06:18:25;;;;;;;9.35;4.80;;;;;;;;;;1752341;80;21134;-80
2022/06/14 06:20:58;;;;;;;8.40;4.83;;;;;;;;;;1787466;78;22155;-82
2022/06/14 06:23:33;;;;;;;5.80;3.52;;;;;;;;;;1768652;79;21180;-83
2022/06/14 06:26:08;;;;;;;6.80;3.72;;;;;;;;;;1769335;80;21173;-81
2022/06/14 06:28:43;;;;;;;10.15;4.83;;;;;;;;;;1778585;79;21130;-81
2022/06/14 06:31:18;;;;;;;10.90;5.25;;;;;;;;;;1753714;80;21217;-81
2022/06/14 06:33:53;;;;;;;8.63;4.55;;;;;;;;;;1782028;78;21138;-82
2022/06/14 06:36:27;;;;;;;12.40;5.20;;;;;;;;;;1782806;78;21220;-82
2022/06/14 06:39:01;;;;;;;9.98;5.72;;;;;;;;;;1775380;78;21178;-82
2022/06/14 06:44:14;;;;;;;9.15;4.85;;;;;;;;;;1760357;80;21129;-80
2022/06/14 06:46:49;;;;;;;8.63;5.95;;;;;;;;;;1818399;77;21503;-81
2022/06/14 06:49:22;;;;;;;10.88;5.83;;;;;;;;;;1812197;78;21083;-80
2022/06/14 06:51:54;;;;;;;10.45;5.40;;;;;;;;;;1806052;78;21166;-82
2022/06/14 06:54:25;;;;;;;12.30;5.55;;;;;;;;;;1815118;77;21681;-82
2022/06/14 06:56:57;;;;;;;12.33;5.83;;;;;;;;;;1824195;77;21149;-81
2022/06/14 06:59:27;;;;;;;10.03;4.97;;;;;;;;;;1811933;78;21142;-82
2022/06/14 07:01:58;;;;;;;11.03;4.78;;;;;;;;;;1788741;79;21583;-82
2022/06/14 07:07:04;;;;;;;;;;;;;;;;;;1821001;77;21586;-82
2022/06/14 07:09:36;;;;;;;8.18;5.40;;;;;;;;;;1823524;77;20468;-82
2022/06/14 07:12:07;;;;;;;10.93;4.75;;;;;;;;;;1819323;77;21106;-82
2022/06/14 07:14:39;;;;;;;9.28;5.78;;;;;;;;;;1808379;77;21295;-82
2022/06/14 07:17:10;;;;;;;9.85;5.20;;;;;;;;;;1808092;77;21155;-81
2022/06/14 07:19:42;;;;;;;9.60;5.47;;;;;;;;;;1811709;77;21208;-82
2022/06/14 07:22:11;;;;;;;8.70;5.20;;;;;;;;;;1847335;77;21199;-81
2022/06/14 07:24:43;;;;;;;10.13;6.10;;;;;;;;;;1856360;77;21107;-82
2022/06/14 07:27:17;;;;;;;10.98;7.58;;;;;;;;;;1851022;77;21178;-82
2022/06/14 07:29:48;;;;;;;10.85;5.87;;;;;;;;;;1850559;77;21221;-82
2022/06/14 07:32:23;;;;;;;9.20;5.17;;;;;;;;;;1820320;76;21134;-81
2022/06/14 07:34:59;;;;;;;9.28;5.62;;;;;;;;;;1818022;78;21170;-82
2022/06/14 07:37:34;;;;;;;8.20;5.12;;;;;;;;;;1780131;79;21072;-81
2022/06/14 07:40:08;;;;;;;8.05;5.40;;;;;;;;;;1795332;79;21149;-82
2022/06/14 07:42:43;;;;;;;10.72;5.37;;;;;;;;;;1810208;78;21228;-81
2022/06/14 07:45:18;;;;;;;7.95;5.65;;;;;;;;;;1795706;77;21146;-82
2022/06/14 07:47:54;;;;;;;9.78;5.42;;;;;;;;;;1793539;77;21139;-81
2022/06/14 07:50:28;;;;;;;14.18;5.90;;;;;;;;;;1814472;78;21157;-82
2022/06/14 07:53:03;;;;;;;9.80;4.78;;;;;;;;;;1818379;78;21222;-72
2022/06/14 07:55:38;;;;;;;9.65;6.00;;;;;;;;;;1784657;79;21333;-73
2022/06/14 07:58:13;;;;;;;9.05;4.72;;;;;;;;;;1799131;78;21154;-72
2022/06/14 08:03:22;;;;;;;;;;;;;;;;;;1854734;76;21200;-70
2022/06/14 08:05:57;;;;;;;8.55;4.75;;;;;;;;;;1852991;76;20166;-72
2022/06/14 08:08:32;;;;;;;11.88;5.12;;;;;;;;;;1854468;76;21091;-72
2022/06/14 08:11:10;;;;;;;10.85;5.00;;;;;;;;;;1846778;76;21104;-71
2022/06/14 08:13:44;;;;;;;13.10;5.40;;;;;;;;;;1846165;76;21598;-71
2022/06/14 08:16:19;;;;;;;7.47;4.60;;;;;;;;;;1843082;76;21225;-76
2022/06/14 08:18:54;;;;;;;14.10;4.75;;;;;;;;;;1854134;76;21188;-71
2022/06/14 08:21:30;;;;;;;10.60;5.33;;;;;;;;;;1822029;77;21227;-72
2022/06/14 08:24:05;;;;;;;10.00;5.40;;;;;;;;;;1788562;78;21301;-71
2022/06/14 08:26:42;;;;;;;10.55;4.53;;;;;;;;;;1825135;77;21174;-71
2022/06/14 08:29:18;;;;;;;8.40;4.40;;;;;;;;;;1787594;78;21153;-71
2022/06/14 08:31:51;;;;;;;8.20;4.80;;;;;;;;;;1787061;79;21174;-69
2022/06/14 08:34:27;;;;;;;8.65;5.17;;;;;;;;;;1789072;79;21229;-71
2022/06/14 08:37:01;;;;;;;11.30;5.87;;;;;;;;;;1813864;78;21224;-70
2022/06/14 08:39:39;;;;;;;14.13;6.57;;;;;;;;;;1795202;78;21178;-71
2022/06/14 08:42:14;;;;;;;14.43;6.62;;;;;;;;;;1809523;78;21177;-72
2022/06/14 08:44:51;;;;;;;11.25;5.95;;;;;;;;;;1806395;78;21178;-70
2022/06/14 08:47:25;;;;;;;12.13;5.80;;;;;;;;;;1815427;79;21138;-71
2022/06/14 08:50:01;;;;;;;13.85;6.70;;;;;;;;;;1770643;79;21213;-71
2022/06/14 08:52:41;;;;;;;9.68;6.60;;;;;;;;;;1840594;76;21123;-71
2022/06/14 08:55:18;;;;;;;12.60;7.58;;;;;;;;;;1847800;76;21606;-70
2022/06/14 08:57:55;;;;;;;11.93;6.78;;;;;;;;;;1824675;76;21218;-71
2022/06/14 09:00:31;;;;;;;10.30;6.22;;;;;;;;;;1830788;77;21654;-71
2022/06/14 09:03:07;;;;;;;9.35;5.58;;;;;;;;;;1822131;76;21180;-71
2022/06/14 09:05:41;;;;;;;10.98;6.20;;;;;;;;;;1848425;76;21248;-70
2022/06/14 09:08:17;;;;;;;13.10;7.22;;;;;;;;;;1845583;76;21213;-71
2022/06/14 09:10:52;;;;;;;11.43;6.10;;;;;;;;;;1854048;76;21183;-70
2022/06/14 09:13:28;;;;;;;9.68;5.35;;;;;;;;;;1839843;76;21099;-71
2022/06/14 09:16:04;;;;;;;9.83;5.47;;;;;;;;;;1842880;77;21139;-72
2022/06/14 09:18:41;;;;;;;9.73;5.62;;;;;;;;;;1846429;77;21697;-72
2022/06/14 09:21:16;;;;;;;13.70;5.40;;;;;;;;;;1813797;78;21202;-73
2022/06/14 09:26:50;;;;;;;11.85;5.33;;;;;;;;;;1733150;81;21757;-71
2022/06/14 09:29:23;;;;;;;9.30;4.70;;;;;;;;;;1732139;81;21223;-72
2022/06/14 09:32:01;;;;;;;9.48;4.60;;;;;;;;;;1729075;81;21197;-72
2022/06/14 09:34:38;;;;;;;11.90;5.10;;;;;;;;;;1739263;81;21836;-71
2022/06/14 09:37:11;;;;;;;9.28;5.42;;;;;;;;;;1701791;83;21224;-70
2022/06/14 09:39:51;;;;;;;10.65;5.58;;;;;;;;;;1715753;82;21368;-71
2022/06/14 09:42:28;;;;;;;8.08;5.35;;;;;;;;;;1724357;82;21236;-71
2022/06/14 09:45:01;;;;;;;11.50;6.00;;;;;;;;;;1718475;82;21191;-71
2022/06/14 09:47:35;;;;;;;11.73;6.45;;;;;;;;;;1714737;82;21808;-74
2022/06/14 09:50:08;;;;;;;9.53;5.22;;;;;;;;;;1720941;82;21731;-71
2022/06/14 09:52:40;;;;;;;11.38;5.50;;;;;;;;;;1724655;82;21241;-70
2022/06/14 09:55:13;;;;;;;8.90;5.92;;;;;;;;;;1721331;82;21325;-71
2022/06/14 09:57:45;;;;;;;9.93;5.58;;;;;;;;;;1732631;81;21099;-71
2022/06/14 10:00:16;;;;;;;9.55;5.45;;;;;;;;;;1767448;80;21178;-72
2022/06/14 10:02:48;;;;;;;12.35;5.85;;;;;;;;;;1774061;80;21271;-72
2022/06/14 10:05:23;;;;;;;10.28;5.95;;;;;;;;;;1766793;80;22120;-72
2022/06/14 10:07:55;;;;;;;12.63;6.58;;;;;;;;;;1729000;81;21352;-70
2022/06/14 10:10:49;;;;;;;13.70;6.95;;;;;;;;;;1751426;80;21883;-71
2022/06/14 10:13:21;;;;;;;12.00;7.78;;;;;;;;;;1746116;81;21250;-70
2022/06/14 10:15:52;;;;;;;11.20;6.83;;;;;;;;;;1733701;81;21259;-70
2022/06/14 10:18:26;;;;;;;15.80;8.25;;;;;;;;;;1730090;81;21244;-72
2022/06/14 10:21:01;;;;;;;12.82;7.60;;;;;;;;;;1728768;81;21257;-71
2022/06/14 10:23:34;;;;;;;11.78;6.87;;;;;;;;;;1736184;81;21145;-72
2022/06/14 10:28:42;;;;;;;12.23;7.85;;;;;;;;;;1752446;82;21202;-72
2022/06/14 10:31:14;;;;;;;21.55;8.88;;;;;;;;;;1781882;79;21215;-72
2022/06/14 10:33:47;;;;;;;15.10;8.50;;;;;;;;;;1788147;79;21160;-71
2022/06/14 10:36:19;;;;;;;16.60;8.23;;;;;;;;;;1776763;80;21184;-71
2022/06/14 10:38:50;;;;;;;12.65;6.80;;;;;;;;;;1776229;79;21229;-72
2022/06/14 10:41:22;;;;;;;11.68;5.67;;;;;;;;;;1774996;79;21160;-72
2022/06/14 10:43:53;;;;;;;10.93;5.60;;;;;;;;;;1786851;80;21112;-72
2022/06/14 10:46:25;;;;;;;8.48;4.95;;;;;;;;;;1779044;80;21617;-71
2022/06/14 10:48:55;;;;;;;7.60;3.75;;;;;;;;;;1782522;80;21378;-71
2022/06/14 10:51:27;;;;;;;10.13;4.50;;;;;;;;;;1770590;80;21167;-71
2022/06/14 10:54:00;;;;;;;8.55;4.28;;;;;;;;;;1743609;81;21658;-71
2022/06/14 10:56:33;;;;;;;5.65;3.37;;;;;;;;;;1768268;80;21287;-71
2022/06/14 10:59:10;;;;;;;7.53;3.17;;;;;;;;;;1772361;80;21260;-72
2022/06/14 11:01:41;;;;;;;;;;;;;;;;;;1758954;80;21185;-71
2022/06/14 11:04:15;;;;;;;9.63;3.40;;;;;;;;;;1736909;81;20198;-71
2022/06/14 11:06:50;;;;;;;6.78;2.77;;;;;;;;;;1778097;80;21193;-71
2022/06/14 11:09:24;;;;;;;8.23;3.52;;;;;;;;;;1765055;79;21209;-70
2022/06/14 11:12:01;;;;;;;6.10;3.75;;;;;;;;;;1771336;80;21206;-72
2022/06/14 11:14:38;;;;;;;8.63;4.05;;;;;;;;;;1775582;80;21571;-72
2022/06/14 11:17:14;;;;;;;6.20;4.05;;;;;;;;;;1768510;80;21087;-72
2022/06/14 11:19:54;;;;;;;8.90;3.85;;;;;;;;;;1764889;80;21247;-69
2022/06/14 11:22:39;;;;;;;13.00;4.33;;;;;;;;;;1771406;80;21229;-70
2022/06/14 11:25:13;;;;;;;5.45;3.95;;;;;;;;;;1763375;80;21161;-70
2022/06/14 11:27:50;;;;;;;8.35;4.08;;;;;;;;;;1763272;78;21195;-82
2022/06/14 11:30:28;;;;;;;8.93;4.00;;;;;;;;;;1790495;79;21634;-81
2022/06/14 11:33:05;;;;;;;8.45;4.20;;;;;;;;;;1775637;79;21450;-82
2022/06/14 11:35:36;;;;;;;10.35;4.03;;;;;;;;;;1804761;79;21153;-81
2022/06/14 11:38:11;;;;;;;8.83;4.35;;;;;;;;;;1783558;79;21098;-81
2022/06/14 11:40:44;;;;;;;9.65;5.22;;;;;;;;;;1789565;79;21223;-80
2022/06/14 11:43:17;;;;;;;10.50;5.12;;;;;;;;;;1806974;79;21166;-83
2022/06/14 11:45:49;;;;;;;16.15;6.12;;;;;;;;;;1795318;79;21155;-80
2022/06/14 11:48:26;;;;;;;9.70;5.70;;;;;;;;;;1796627;79;21188;-80
2022/06/14 11:51:01;;;;;;;11.08;4.80;;;;;;;;;;1802017;79;21119;-80
2022/06/14 11:53:32;;;;;;;9.80;4.72;;;;;;;;;;1791445;79;21158;-81
2022/06/14 11:56:05;;;;;;;8.30;4.78;;;;;;;;;;1799022;79;21204;-80
2022/06/14 11:58:36;;;;;;;10.30;4.97;;;;;;;;;;1806733;79;21100;-80
2022/06/14 12:01:08;;;;;;;10.40;4.70;;;;;;;;;;1806083;79;21167;-83
2022/06/14 12:03:42;;;;;;;10.80;4.65;;;;;;;;;;1807505;79;21490;-82
2022/06/14 12:06:15;;;;;;;8.58;4.95;;;;;;;;;;1805425;79;21105;-81
2022/06/14 12:08:53;;;;;;;7.75;4.72;;;;;;;;;;1801488;79;21157;-80
2022/06/14 12:11:26;;;;;;;14.00;5.33;;;;;;;;;;1796227;79;21165;-82
2022/06/14 12:14:00;;;;;;;11.50;5.03;;;;;;;;;;1791230;79;21096;-79
2022/06/14 12:16:37;;;;;;;11.75;6.08;;;;;;;;;;1802251;79;21140;-80
2022/06/14 12:19:10;;;;;;;12.00;6.62;;;;;;;;;;1804512;79;21215;-81
2022/06/14 12:21:41;;;;;;;12.73;5.83;;;;;;;;;;1783363;79;21276;-81
2022/06/14 12:24:21;;;;;;;10.85;5.97;;;;;;;;;;1796464;79;21146;-82
2022/06/14 12:26:57;;;;;;;9.15;5.37;;;;;;;;;;1770064;80;21625;-80
2022/06/14 12:29:31;;;;;;;11.65;5.40;;;;;;;;;;1781605;79;21183;-83
2022/06/14 12:32:04;;;;;;;15.80;5.55;;;;;;;;;;1796065;79;21742;-81
2022/06/14 12:34:36;;;;;;;8.15;5.10;;;;;;;;;;1785658;79;21159;-80
2022/06/14 12:37:09;;;;;;;10.08;5.65;;;;;;;;;;1790062;79;21119;-82
2022/06/14 12:39:42;;;;;;;11.60;5.70;;;;;;;;;;1786962;79;21300;-81
2022/06/14 12:42:15;;;;;;;12.35;5.70;;;;;;;;;;1785894;79;21237;-83
2022/06/14 12:44:50;;;;;;;8.05;5.58;;;;;;;;;;1787743;79;21161;-81
2022/06/14 12:47:23;;;;;;;13.35;5.67;;;;;;;;;;1751187;80;21113;-81
2022/06/14 12:49:56;;;;;;;11.73;5.60;;;;;;;;;;1791531;79;21175;-83
2022/06/14 12:52:28;;;;;;;12.23;6.00;;;;;;;;;;1794888;79;21185;-82
2022/06/14 12:55:01;;;;;;;15.05;7.00;;;;;;;;;;1787639;79;21190;-82
2022/06/14 12:57:35;;;;;;;10.68;7.00;;;;;;;;;;1794125;79;21155;-81
2022/06/14 13:00:12;;;;;;;13.98;6.90;;;;;;;;;;1787196;79;21123;-83
2022/06/14 13:02:47;;;;;;;11.00;6.65;;;;;;;;;;1793292;79;21150;-84
2022/06/14 13:05:21;;;;;;;7.70;4.97;;;;;;;;;;1784944;80;21214;-80
2022/06/14 13:07:52;;;;;;;8.03;4.40;;;;;;;;;;1782837;80;21162;-83
2022/06/14 13:10:28;;;;;;;10.43;4.95;;;;;;;;;;1785472;79;21154;-81
2022/06/14 13:13:00;;;;;;;9.60;5.10;;;;;;;;;;1788758;78;21080;-79
2022/06/14 13:15:34;;;;;;;6.50;4.05;;;;;;;;;;1783125;80;21162;-82
2022/06/14 13:18:06;;;;;;;9.98;5.53;;;;;;;;;;1785383;79;21194;-80
2022/06/14 13:20:39;;;;;;;7.97;5.12;;;;;;;;;;1796750;79;21130;-82
2022/06/14 13:23:14;;;;;;;13.25;7.17;;;;;;;;;;1792837;79;21107;-81
2022/06/14 13:25:45;;;;;;;11.95;6.85;;;;;;;;;;1784222;79;21166;-82
2022/06/14 13:28:17;;;;;;;12.07;6.80;;;;;;;;;;1793465;79;21180;-83
2022/06/14 13:30:50;;;;;;;13.40;7.47;;;;;;;;;;1785179;79;21189;-83
2022/06/14 13:33:26;;;;;;;15.83;7.15;;;;;;;;;;1790763;79;21138;-84
2022/06/14 13:35:59;;;;;;;13.15;6.90;;;;;;;;;;1788002;79;21151;-82
2022/06/14 13:38:33;;;;;;;11.73;6.55;;;;;;;;;;1790875;79;21157;-83
2022/06/14 13:41:06;;;;;;;12.03;6.78;;;;;;;;;;1787320;79;21110;-82
2022/06/14 13:43:40;;;;;;;12.35;6.67;;;;;;;;;;1783878;79;21206;-83
2022/06/14 13:46:13;;;;;;;12.88;7.53;;;;;;;;;;1796158;79;21312;-83
2022/06/14 13:48:55;;;;;;;10.85;5.80;;;;;;;;;;1788554;79;21201;-82
2022/06/14 13:51:22;;;;;;;15.00;5.75;;;;;;;;;;1782180;79;21264;-82
2022/06/14 13:53:54;;;;;;;10.28;5.60;;;;;;;;;;1769162;80;21206;-83
2022/06/14 13:56:26;;;;;;;12.98;4.90;;;;;;;;;;1800749;79;21246;-83
2022/06/14 13:58:59;;;;;;;10.32;4.62;;;;;;;;;;1795064;78;21107;-83
2022/06/14 14:01:33;;;;;;;9.93;4.33;;;;;;;;;;1784124;79;21131;-80
2022/06/14 14:04:08;;;;;;;11.22;5.35;;;;;;;;;;1793608;79;21139;-84
2022/06/14 14:06:39;;;;;;;13.03;5.20;;;;;;;;;;1795658;77;21138;-84
2022/06/14 14:09:11;;;;;;;11.38;5.87;;;;;;;;;;1791129;79;21147;-81
2022/06/14 14:11:44;;;;;;;8.93;5.75;;;;;;;;;;1793253;79;21205;-85
2022/06/14 14:14:20;;;;;;;14.28;5.83;;;;;;;;;;1796612;79;21247;-83
2022/06/14 14:16:57;;;;;;;12.35;4.72;;;;;;;;;;1796434;78;21101;-82
2022/06/14 14:19:33;;;;;;;9.78;5.35;;;;;;;;;;1792481;79;21162;-82
2022/06/14 14:22:06;;;;;;;7.30;4.80;;;;;;;;;;1787814;79;21100;-83
2022/06/14 14:24:40;;;;;;;11.38;5.12;;;;;;;;;;1768794;80;21174;-83
2022/06/14 14:27:15;;;;;;;9.38;5.30;;;;;;;;;;1796846;79;21171;-81
2022/06/14 14:29:50;;;;;;;9.75;5.45;;;;;;;;;;1763707;80;21076;-82
2022/06/14 14:32:22;;;;;;;12.93;5.45;;;;;;;;;;1797684;79;21132;-83
2022/06/14 14:34:56;;;;;;;7.87;5.33;;;;;;;;;;1766998;80;21300;-82
2022/06/14 14:37:32;;;;;;;13.00;5.72;;;;;;;;;;1761321;80;21142;-81
2022/06/14 14:40:03;;;;;;;13.80;5.92;;;;;;;;;;1764110;80;21114;-83
2022/06/14 14:42:35;;;;;;;11.50;5.83;;;;;;;;;;1793884;79;21187;-83
2022/06/14 14:45:08;;;;;;;10.32;6.72;;;;;;;;;;1782966;79;21220;-84
2022/06/14 14:47:40;;;;;;;10.98;5.92;;;;;;;;;;1778886;79;21132;-81
2022/06/14 14:50:13;;;;;;;8.20;5.50;;;;;;;;;;1799630;79;21620;-83
2022/06/14 14:52:56;;;;;;;;;;;;;;;;;;;;;
2022/06/14 14:55:26;;;;;;;9.78;5.97;;;;;;;;;;1776044;79;21245;-82
2022/06/14 14:57:56;;;;;;;12.90;5.58;;;;;;;;;;1788004;78;21269;-82
2022/06/14 15:05:43;;;;;;;11.57;6.70;;;;;;;;;;1787077;79;21245;-83
2022/06/14 15:08:15;;;;;;;12.63;6.58;;;;;;;;;;1785497;79;21216;-81
2022/06/14 15:10:48;;;;;;;12.47;7.08;;;;;;;;;;1789241;79;21111;-81
2022/06/14 15:13:22;;;;;;;12.23;7.25;;;;;;;;;;1781716;79;21159;-80
2022/06/14 15:15:54;;;;;;;14.78;7.70;;;;;;;;;;1786072;79;21163;-82
2022/06/14 15:21:00;;;;;;;13.35;7.05;;;;;;;;;;1786209;79;21162;-81
2022/06/14 15:23:33;;;;;;;14.10;7.33;;;;;;;;;;1768773;79;21299;-82
2022/06/14 15:26:05;;;;;;;10.53;6.22;;;;;;;;;;1791746;79;21063;-81
2022/06/14 15:28:40;;;;;;;15.72;7.37;;;;;;;;;;1797734;79;21150;-84
2022/06/14 15:31:15;;;;;;;16.20;8.73;;;;;;;;;;1799239;78;21238;-81
2022/06/14 15:33:52;;;;;;;14.87;8.35;;;;;;;;;;1787017;78;21105;-82
2022/06/14 15:36:22;;;;;;;16.40;8.30;;;;;;;;;;1799600;78;21231;-82
2022/06/14 15:38:56;;;;;;;19.67;8.95;;;;;;;;;;1762119;80;21146;-81